createdAt,value
2023-02-02T00:01:58.003Z,11.43
2023-02-02T00:04:27.822Z,10.13
2023-02-02T00:06:57.258Z,10.82
2023-02-02T00:09:25.145Z,12.23
2023-02-02T00:11:53.469Z,13.18
2023-02-02T00:14:21.631Z,13.45
2023-02-02T00:17:05.598Z,12.50
2023-02-02T00:19:32.655Z,8.48
2023-02-02T00:22:05.486Z,12.45
2023-02-02T00:24:32.400Z,17.40
2023-02-02T00:27:00.401Z,13.85
2023-02-02T00:29:29.931Z,9.10
2023-02-02T00:31:57.003Z,9.95
2023-02-02T00:34:29.745Z,11.32
2023-02-02T00:36:57.007Z,16.05
2023-02-02T00:39:28.239Z,11.35
2023-02-02T00:42:03.516Z,12.30
2023-02-02T00:44:50.687Z,11.45
2023-02-02T00:47:18.171Z,11.45
2023-02-02T00:49:44.895Z,12.57
2023-02-02T00:52:12.080Z,9.38
2023-02-02T00:54:38.845Z,12.10
2023-02-02T00:57:09.791Z,12.38
2023-02-02T00:59:36.782Z,13.25
2023-02-02T01:02:04.347Z,11.60
2023-02-02T01:04:31.663Z,11.02
2023-02-02T01:06:59.140Z,15.02
2023-02-02T01:09:28.716Z,15.25
2023-02-02T01:11:58.481Z,14.98
2023-02-02T01:14:32.284Z,9.85
2023-02-02T01:16:59.375Z,12.18
2023-02-02T01:19:37.216Z,16.13
2023-02-02T01:22:05.716Z,15.05
2023-02-02T01:24:32.825Z,16.92
2023-02-02T01:27:03.368Z,16.00
2023-02-02T01:29:33.909Z,12.85
2023-02-02T01:32:01.555Z,17.10
2023-02-02T01:34:28.346Z,12.07
2023-02-02T01:36:55.533Z,11.65
2023-02-02T01:39:22.818Z,17.65
2023-02-02T01:41:57.166Z,9.77
2023-02-02T01:44:51.843Z,4.00
2023-02-02T01:47:27.999Z,6.20
2023-02-02T01:49:56.662Z,9.25
2023-02-02T01:52:33.909Z,16.42
2023-02-02T01:55:11.351Z,10.98
2023-02-02T01:57:47.066Z,7.28
2023-02-02T02:00:25.102Z,16.35
2023-02-02T02:02:56.847Z,10.40
2023-02-02T02:05:29.431Z,11.20
2023-02-02T02:08:07.741Z,18.00
2023-02-02T02:10:35.202Z,9.38
2023-02-02T02:13:02.397Z,9.20
2023-02-02T02:15:49.778Z,14.00
2023-02-02T02:18:35.765Z,10.63
2023-02-02T02:21:42.201Z,10.75
2023-02-02T02:24:46.049Z,12.60
2023-02-02T02:27:54.792Z,12.52
2023-02-02T02:30:39.116Z,12.30
2023-02-02T02:33:26.435Z,14.23
2023-02-02T02:36:04.544Z,8.88
2023-02-02T02:39:00.161Z,14.23
2023-02-02T02:41:32.552Z,10.38
2023-02-02T02:44:07.191Z,10.13
2023-02-02T02:46:34.726Z,10.05
2023-02-02T02:49:02.122Z,14.45
2023-02-02T02:51:49.323Z,9.98
2023-02-02T02:54:20.041Z,9.75
2023-02-02T02:57:02.335Z,12.30
2023-02-02T02:59:48.161Z,7.20
2023-02-02T03:02:40.997Z,8.30
2023-02-02T03:05:33.493Z,3.80
2023-02-02T03:08:23.053Z,12.45
2023-02-02T03:10:49.925Z,7.95
2023-02-02T03:13:19.069Z,17.40
2023-02-02T03:15:46.506Z,9.88
2023-02-02T03:18:15.190Z,8.77
2023-02-02T03:20:43.768Z,11.68
2023-02-02T03:23:10.947Z,8.57
2023-02-02T03:25:45.139Z,4.72
2023-02-02T03:28:17.916Z,6.95
2023-02-02T03:30:45.637Z,7.05
2023-02-02T03:33:16.151Z,8.40
2023-02-02T03:35:45.693Z,5.75
2023-02-02T03:38:15.444Z,3.95
2023-02-02T03:40:45.571Z,6.57
2023-02-02T03:43:12.486Z,5.00
2023-02-02T03:45:48.111Z,10.40
2023-02-02T03:48:20.307Z,8.88
2023-02-02T03:50:50.115Z,9.80
2023-02-02T03:53:16.968Z,8.02
2023-02-02T03:55:43.910Z,8.65
2023-02-02T03:58:15.578Z,6.30
2023-02-02T04:00:42.833Z,4.47
2023-02-02T04:03:11.043Z,6.55
2023-02-02T04:05:46.055Z,3.90
2023-02-02T04:08:15.859Z,5.28
2023-02-02T04:10:42.890Z,5.63
2023-02-02T04:13:10.039Z,3.42
2023-02-02T04:15:37.315Z,4.03
2023-02-02T04:18:07.404Z,3.75
2023-02-02T04:20:34.464Z,6.43
2023-02-02T04:23:04.283Z,5.68
2023-02-02T04:25:34.389Z,8.48
2023-02-02T04:28:03.507Z,5.22
2023-02-02T04:30:35.509Z,4.60
2023-02-02T04:33:09.986Z,9.18
2023-02-02T04:35:36.899Z,6.40
2023-02-02T04:38:05.168Z,8.60
2023-02-02T04:40:35.123Z,4.05
2023-02-02T04:43:04.498Z,10.07
2023-02-02T04:45:37.559Z,5.80
2023-02-02T04:48:05.155Z,3.17
2023-02-02T04:50:31.913Z,4.15
2023-02-02T04:52:59.046Z,8.80
2023-02-02T04:55:26.473Z,4.05
2023-02-02T04:57:53.472Z,5.07
2023-02-02T05:00:21.489Z,13.57
2023-02-02T05:02:51.013Z,9.40
2023-02-02T05:05:21.329Z,3.75
2023-02-02T05:07:48.505Z,10.70
2023-02-02T05:10:16.457Z,4.10
2023-02-02T05:12:43.341Z,4.07
2023-02-02T05:15:11.139Z,8.82
2023-02-02T05:17:40.877Z,3.50
2023-02-02T05:20:08.538Z,7.30
2023-02-02T05:22:38.422Z,7.43
2023-02-02T05:25:06.856Z,10.27
2023-02-02T05:27:33.795Z,9.98
2023-02-02T05:30:03.077Z,6.82
2023-02-02T05:32:30.223Z,9.63
2023-02-02T05:35:02.033Z,6.28
2023-02-02T05:37:29.152Z,8.57
2023-02-02T05:39:56.092Z,9.30
2023-02-02T05:42:23.174Z,8.43
2023-02-02T05:44:57.389Z,6.72
2023-02-02T05:47:27.292Z,5.57
2023-02-02T05:50:01.119Z,9.43
2023-02-02T05:52:34.023Z,5.85
2023-02-02T05:55:04.182Z,7.30
2023-02-02T05:57:31.136Z,6.38
2023-02-02T05:59:58.066Z,6.50
2023-02-02T06:02:26.245Z,5.20
2023-02-02T06:04:55.981Z,4.15
2023-02-02T06:07:22.922Z,4.05
2023-02-02T06:09:49.783Z,8.88
2023-02-02T06:12:16.909Z,9.23
2023-02-02T06:14:47.017Z,6.28
2023-02-02T06:17:13.812Z,5.15
2023-02-02T06:19:40.547Z,8.38
2023-02-02T06:22:07.662Z,6.95
2023-02-02T06:24:34.687Z,12.02
2023-02-02T06:27:01.737Z,5.50
2023-02-02T06:29:29.253Z,5.45
2023-02-02T06:31:56.348Z,9.68
2023-02-02T06:34:23.401Z,8.52
2023-02-02T06:36:52.910Z,6.85
2023-02-02T06:39:19.699Z,9.40
2023-02-02T06:41:48.896Z,10.75
2023-02-02T06:44:15.975Z,8.82
2023-02-02T06:46:43.441Z,10.20
2023-02-02T06:49:10.410Z,5.57
2023-02-02T06:51:37.750Z,11.88
2023-02-02T06:54:05.095Z,4.97
2023-02-02T06:56:32.185Z,9.13
2023-02-02T06:58:58.887Z,5.20
2023-02-02T07:01:28.738Z,7.85
2023-02-02T07:04:00.874Z,3.88
2023-02-02T07:06:31.751Z,7.53
2023-02-02T07:09:02.894Z,5.30
2023-02-02T07:11:45.324Z,14.43
2023-02-02T07:14:14.785Z,4.47
2023-02-02T07:16:42.126Z,8.50
2023-02-02T07:19:09.588Z,4.57
2023-02-02T07:21:36.829Z,6.10
2023-02-02T07:24:04.768Z,10.35
2023-02-02T07:26:34.672Z,4.50
2023-02-02T07:29:01.579Z,8.38
2023-02-02T07:31:29.599Z,16.27
2023-02-02T07:33:56.598Z,8.23
2023-02-02T07:36:28.116Z,7.93
2023-02-02T07:38:58.478Z,9.55
2023-02-02T07:41:25.870Z,7.32
2023-02-02T07:43:52.846Z,9.15
2023-02-02T07:46:22.801Z,8.98
2023-02-02T07:49:00.874Z,6.35
2023-02-02T07:51:30.077Z,8.38
2023-02-02T07:54:00.629Z,7.38
2023-02-02T07:56:28.689Z,8.18
2023-02-02T07:58:56.594Z,11.43
2023-02-02T08:01:27.927Z,8.65
2023-02-02T08:03:56.201Z,16.25
2023-02-02T08:06:32.418Z,14.05
2023-02-02T08:09:00.258Z,14.05
2023-02-02T08:11:34.150Z,8.77
2023-02-02T08:14:04.599Z,7.13
2023-02-02T08:16:32.635Z,6.40
2023-02-02T08:19:02.683Z,17.52
2023-02-02T08:21:33.510Z,12.93
2023-02-02T08:24:00.712Z,12.80
2023-02-02T08:26:33.029Z,10.90
2023-02-02T08:29:07.249Z,8.55
2023-02-02T08:31:52.245Z,15.68
2023-02-02T08:34:19.726Z,7.30
2023-02-02T08:36:49.233Z,7.18
2023-02-02T08:39:16.478Z,8.65
2023-02-02T08:41:43.323Z,9.07
2023-02-02T08:44:14.290Z,6.65
2023-02-02T08:46:42.433Z,7.57
2023-02-02T08:49:13.549Z,7.93
2023-02-02T08:51:40.940Z,9.57
2023-02-02T08:54:08.148Z,11.00
2023-02-02T08:56:35.190Z,6.55
2023-02-02T08:59:05.070Z,5.28
2023-02-02T09:01:33.548Z,6.82
2023-02-02T09:04:09.064Z,10.75
2023-02-02T09:06:38.601Z,5.55
2023-02-02T09:09:07.335Z,11.32
2023-02-02T09:11:34.923Z,9.35
2023-02-02T09:14:05.207Z,8.75
2023-02-02T09:16:33.274Z,3.15
2023-02-02T09:19:00.371Z,9.48
2023-02-02T09:21:27.488Z,5.05
2023-02-02T09:23:54.759Z,4.68
2023-02-02T09:26:27.480Z,5.70
2023-02-02T09:29:03.215Z,5.70
2023-02-02T09:31:33.587Z,8.70
2023-02-02T09:34:05.430Z,4.65
2023-02-02T09:36:32.891Z,4.32
2023-02-02T09:38:59.806Z,9.30
2023-02-02T09:41:38.684Z,10.00
2023-02-02T09:44:39.524Z,6.15
2023-02-02T09:47:17.830Z,4.85
2023-02-02T09:50:08.993Z,10.18
2023-02-02T09:52:44.885Z,14.00
2023-02-02T09:55:41.741Z,8.48
2023-02-02T09:58:15.616Z,6.90
2023-02-02T10:00:55.632Z,6.78
2023-02-02T10:03:35.827Z,9.27
2023-02-02T10:06:39.558Z,9.93
2023-02-02T10:09:27.255Z,6.20
2023-02-02T10:12:02.269Z,8.07
2023-02-02T10:14:52.664Z,3.75
2023-02-02T10:17:42.338Z,6.30
2023-02-02T10:20:18.641Z,5.05
2023-02-02T10:22:47.034Z,7.43
2023-02-02T10:25:15.400Z,4.63
2023-02-02T10:27:49.561Z,6.03
2023-02-02T10:30:20.166Z,5.50
2023-02-02T10:33:20.146Z,4.45
2023-02-02T10:36:18.563Z,1.33
2023-02-02T10:38:56.450Z,5.78
2023-02-02T10:41:37.355Z,8.15
2023-02-02T10:44:39.447Z,3.75
2023-02-02T10:47:10.929Z,10.27
2023-02-02T10:49:39.210Z,10.88
2023-02-02T10:52:11.777Z,4.57
2023-02-02T10:54:57.830Z,7.85
2023-02-02T10:57:54.142Z,4.90
2023-02-02T11:00:48.055Z,5.85
2023-02-02T11:03:16.509Z,2.42
2023-02-02T11:06:02.114Z,3.05
2023-02-02T11:08:38.991Z,5.63
2023-02-02T11:11:33.352Z,2.13
2023-02-02T11:14:08.918Z,6.20
2023-02-02T11:16:43.036Z,4.20
2023-02-02T11:19:19.862Z,4.25
2023-02-02T11:21:52.677Z,7.47
2023-02-02T11:24:50.472Z,4.68
2023-02-02T11:27:23.456Z,5.32
2023-02-02T11:29:53.610Z,6.18
2023-02-02T11:32:31.876Z,8.55
2023-02-02T11:35:04.918Z,6.50
2023-02-02T11:37:33.252Z,3.85
2023-02-02T11:40:39.613Z,6.63
2023-02-02T11:43:18.085Z,3.65
2023-02-02T11:45:46.127Z,5.18
2023-02-02T11:48:19.843Z,5.25
2023-02-02T11:51:00.155Z,2.55
2023-02-02T11:53:51.327Z,3.33
2023-02-02T11:56:20.222Z,5.85
2023-02-02T11:58:53.014Z,4.03
2023-02-02T12:01:45.174Z,3.33
2023-02-02T12:04:18.856Z,5.40
2023-02-02T12:06:46.234Z,2.80
2023-02-02T12:09:16.668Z,1.95
2023-02-02T12:12:02.575Z,4.57
2023-02-02T12:14:37.716Z,4.47
2023-02-02T12:17:05.159Z,2.50
2023-02-02T12:20:03.228Z,7.90
2023-02-02T12:22:56.931Z,4.68
2023-02-02T12:25:57.027Z,3.63
2023-02-02T12:28:39.439Z,0.98
2023-02-02T12:31:18.734Z,4.25
2023-02-02T12:34:11.769Z,4.68
2023-02-02T12:36:41.878Z,4.15
2023-02-02T12:39:48.547Z,5.20
2023-02-02T12:42:21.342Z,6.63
2023-02-02T12:45:15.822Z,3.50
2023-02-02T12:48:09.564Z,4.55
2023-02-02T12:51:02.281Z,4.85
2023-02-02T12:53:39.353Z,2.55
2023-02-02T12:56:35.361Z,5.85
2023-02-02T12:59:07.214Z,3.13
2023-02-02T13:01:59.738Z,5.18
2023-02-02T13:04:49.246Z,1.55
2023-02-02T13:07:25.030Z,4.18
2023-02-02T13:10:04.384Z,8.68
2023-02-02T13:12:34.857Z,3.75
2023-02-02T13:15:08.182Z,5.07
2023-02-02T13:17:41.209Z,3.75
2023-02-02T13:20:19.306Z,2.22
2023-02-02T13:22:49.716Z,5.57
2023-02-02T13:25:29.249Z,4.60
2023-02-02T13:27:57.398Z,5.47
2023-02-02T13:30:34.519Z,4.93
2023-02-02T13:33:06.320Z,5.18
2023-02-02T13:35:52.791Z,5.93
2023-02-02T13:38:30.738Z,3.97
2023-02-02T13:41:00.465Z,3.65
2023-02-02T13:43:48.677Z,2.70
2023-02-02T13:46:21.590Z,4.30
2023-02-02T13:48:56.294Z,3.97
2023-02-02T13:52:00.665Z,3.53
2023-02-02T13:54:33.333Z,3.10
2023-02-02T13:57:15.364Z,3.67
2023-02-02T13:59:46.975Z,2.40
2023-02-02T14:02:29.976Z,8.80
2023-02-02T14:05:01.927Z,4.85
2023-02-02T14:07:43.427Z,5.63
2023-02-02T14:10:24.309Z,7.88
2023-02-02T14:12:51.667Z,8.18
2023-02-02T14:15:18.807Z,2.75
2023-02-02T14:17:47.455Z,1.63
2023-02-02T14:20:42.082Z,4.82
2023-02-02T14:23:51.610Z,5.43
2023-02-02T14:26:42.399Z,3.10
2023-02-02T14:29:29.647Z,5.28
2023-02-02T14:31:59.249Z,4.68
2023-02-02T14:34:35.384Z,2.60
2023-02-02T14:37:28.786Z,3.05
2023-02-02T14:40:07.653Z,1.67
2023-02-02T14:43:28.972Z,2.65
2023-02-02T14:46:07.931Z,5.85
2023-02-02T14:48:35.134Z,3.15
2023-02-02T14:51:17.732Z,4.30
2023-02-02T14:54:30.389Z,7.10
2023-02-02T14:57:10.444Z,6.40
2023-02-02T14:59:42.809Z,4.38
2023-02-02T15:02:22.397Z,4.22
2023-02-02T15:04:50.482Z,2.40
2023-02-02T15:07:26.576Z,1.85
2023-02-02T15:09:56.811Z,2.22
2023-02-02T15:12:46.697Z,3.10
2023-02-02T15:15:24.293Z,2.60
2023-02-02T15:18:08.289Z,2.95
2023-02-02T15:20:40.335Z,3.65
2023-02-02T15:23:29.380Z,2.95
2023-02-02T15:26:26.891Z,1.83
2023-02-02T15:28:56.364Z,4.72
2023-02-02T15:31:28.713Z,5.72
2023-02-02T15:34:13.115Z,5.97
2023-02-02T15:36:41.807Z,6.57
2023-02-02T15:39:27.718Z,2.13
2023-02-02T15:42:17.119Z,2.65
2023-02-02T15:44:44.252Z,3.55
2023-02-02T15:47:16.997Z,2.55
2023-02-02T15:49:44.223Z,1.95
2023-02-02T15:52:17.416Z,2.67
2023-02-02T15:54:56.473Z,2.85
2023-02-02T15:57:35.135Z,1.15
2023-02-02T16:00:28.372Z,3.20
2023-02-02T16:03:06.328Z,3.65
2023-02-02T16:05:36.228Z,3.47
2023-02-02T16:08:07.294Z,1.85
2023-02-02T16:10:35.486Z,0.88
2023-02-02T16:13:02.829Z,2.42
2023-02-02T16:15:32.159Z,4.93
2023-02-02T16:18:02.384Z,3.67
2023-02-02T16:20:33.732Z,1.63
2023-02-02T16:23:06.256Z,1.35
2023-02-02T16:25:36.697Z,2.78
2023-02-02T16:28:03.742Z,2.08
2023-02-02T16:30:38.883Z,1.70
2023-02-02T16:33:30.536Z,3.15
2023-02-02T16:36:00.440Z,4.80
2023-02-02T16:38:34.048Z,2.55
2023-02-02T16:41:07.016Z,0.65
2023-02-02T16:43:34.547Z,1.05
2023-02-02T16:46:09.033Z,2.53
2023-02-02T16:48:38.227Z,1.83
2023-02-02T16:51:17.367Z,3.05
2023-02-02T16:53:47.028Z,2.63
2023-02-02T16:56:36.865Z,7.22
2023-02-02T16:59:26.275Z,2.40
2023-02-02T17:01:56.387Z,1.17
2023-02-02T17:04:30.746Z,1.52
2023-02-02T17:07:16.140Z,1.90
2023-02-02T17:09:44.979Z,3.47
2023-02-02T17:12:34.858Z,2.65
2023-02-02T17:15:26.474Z,1.08
2023-02-02T17:17:57.037Z,1.88
2023-02-02T17:20:24.417Z,1.23
2023-02-02T17:22:56.579Z,1.52
2023-02-02T17:25:49.170Z,5.07
2023-02-02T17:28:30.605Z,1.92
2023-02-02T17:31:03.209Z,3.17
2023-02-02T17:33:35.031Z,5.40
2023-02-02T17:36:02.392Z,1.80
2023-02-02T17:38:29.631Z,1.15
2023-02-02T17:41:01.075Z,3.85
2023-02-02T17:43:29.601Z,1.92
2023-02-02T17:45:56.558Z,1.23
2023-02-02T17:48:23.496Z,3.90
2023-02-02T17:50:50.941Z,2.70
2023-02-02T17:53:21.956Z,3.30
2023-02-02T17:55:50.436Z,6.90
2023-02-02T17:58:18.500Z,1.77
2023-02-02T18:00:54.889Z,3.90
2023-02-02T18:03:24.426Z,6.30
2023-02-02T18:05:51.752Z,3.50
2023-02-02T18:08:18.747Z,4.55
2023-02-02T18:10:45.735Z,2.70
2023-02-02T18:13:19.565Z,1.67
2023-02-02T18:15:47.038Z,4.93
2023-02-02T18:18:15.929Z,2.60
2023-02-02T18:20:47.624Z,2.55
2023-02-02T18:23:16.577Z,3.83
2023-02-02T18:25:43.769Z,2.40
2023-02-02T18:28:17.808Z,3.00
2023-02-02T18:30:46.321Z,3.00
2023-02-02T18:33:13.813Z,7.18
2023-02-02T18:35:44.741Z,5.18
2023-02-02T18:38:13.293Z,3.60
2023-02-02T18:40:40.575Z,6.78
2023-02-02T18:43:07.526Z,2.55
2023-02-02T18:45:34.672Z,3.63
2023-02-02T18:48:03.400Z,5.90
2023-02-02T18:50:30.238Z,5.20
2023-02-02T18:52:57.305Z,6.10
2023-02-02T18:55:25.260Z,6.07
2023-02-02T18:57:52.849Z,4.28
2023-02-02T19:00:20.254Z,3.92
2023-02-02T19:02:47.313Z,4.22
2023-02-02T19:05:32.659Z,5.35
2023-02-02T19:07:59.850Z,2.80
2023-02-02T19:10:27.822Z,3.92
2023-02-02T19:13:03.882Z,3.25
2023-02-02T19:15:35.509Z,3.63
2023-02-02T19:18:02.716Z,3.63
2023-02-02T19:20:33.822Z,4.28
2023-02-02T19:23:07.730Z,6.18
2023-02-02T19:25:34.665Z,3.28
2023-02-02T19:28:27.679Z,5.65
2023-02-02T19:30:57.268Z,1.88
2023-02-02T19:33:39.516Z,5.45
2023-02-02T19:36:14.579Z,1.48
2023-02-02T19:38:41.539Z,6.50
2023-02-02T19:41:20.938Z,3.13
2023-02-02T19:43:48.932Z,3.50
2023-02-02T19:46:22.414Z,2.92
2023-02-02T19:48:51.957Z,10.50
2023-02-02T19:51:44.029Z,1.90
2023-02-02T19:54:34.664Z,2.03
2023-02-02T19:57:13.441Z,3.17
2023-02-02T19:59:42.719Z,3.10
2023-02-02T20:02:33.316Z,4.05
2023-02-02T20:05:12.923Z,2.58
2023-02-02T20:07:39.763Z,3.72
2023-02-02T20:10:23.874Z,2.08
2023-02-02T20:12:51.517Z,5.53
2023-02-02T20:15:31.868Z,3.45
2023-02-02T20:18:04.970Z,3.10
2023-02-02T20:20:43.823Z,2.22
2023-02-02T20:23:41.206Z,4.25
2023-02-02T20:26:26.463Z,3.53
2023-02-02T20:28:58.617Z,1.95
2023-02-02T20:31:38.832Z,1.80
2023-02-02T20:34:29.685Z,4.32
2023-02-02T20:37:03.919Z,1.38
2023-02-02T20:39:35.289Z,1.90
2023-02-02T20:42:04.859Z,3.92
2023-02-02T20:44:33.004Z,2.83
2023-02-02T20:47:00.550Z,2.00
2023-02-02T20:49:29.320Z,1.27
2023-02-02T20:51:57.559Z,3.42
2023-02-02T20:54:25.317Z,4.35
2023-02-02T20:56:53.003Z,2.38
2023-02-02T20:59:20.671Z,5.35
2023-02-02T21:01:50.129Z,2.05
2023-02-02T21:04:18.203Z,7.38
2023-02-02T21:06:44.974Z,7.13
2023-02-02T21:09:11.958Z,4.38
2023-02-02T21:11:38.948Z,2.42
2023-02-02T21:14:08.697Z,4.97
2023-02-02T21:16:35.898Z,3.53
2023-02-02T21:19:03.018Z,5.45
2023-02-02T21:21:31.208Z,9.20
2023-02-02T21:24:01.487Z,4.43
2023-02-02T21:26:31.031Z,3.53
2023-02-02T21:28:58.609Z,3.50
2023-02-02T21:31:28.248Z,4.38
2023-02-02T21:33:55.600Z,6.63
2023-02-02T21:36:36.194Z,7.15
2023-02-02T21:39:16.414Z,3.17
2023-02-02T21:41:46.444Z,5.10
2023-02-02T21:44:23.101Z,5.65
2023-02-02T21:46:51.635Z,5.13
2023-02-02T21:49:22.408Z,10.52
2023-02-02T21:51:49.617Z,7.03
2023-02-02T21:54:18.517Z,8.05
2023-02-02T21:56:47.512Z,4.78
2023-02-02T21:59:20.370Z,4.50
2023-02-02T22:01:48.833Z,4.60
2023-02-02T22:04:19.916Z,4.32
2023-02-02T22:06:55.146Z,9.13
2023-02-02T22:09:24.229Z,3.80
2023-02-02T22:11:52.533Z,10.43
2023-02-02T22:14:22.495Z,6.68
2023-02-02T22:16:52.196Z,6.63
2023-02-02T22:19:34.296Z,12.23
2023-02-02T22:22:18.445Z,7.63
2023-02-02T22:24:50.143Z,10.13
2023-02-02T22:27:25.507Z,9.30
2023-02-02T22:29:57.633Z,8.55
2023-02-02T22:32:24.538Z,9.82
2023-02-02T22:34:51.414Z,6.80
2023-02-02T22:37:18.448Z,6.15
2023-02-02T22:39:45.125Z,6.97
2023-02-02T22:42:11.983Z,7.78
2023-02-02T22:44:38.966Z,7.15
2023-02-02T22:47:08.280Z,15.43
2023-02-02T22:49:35.008Z,8.55
2023-02-02T22:52:01.841Z,8.18
2023-02-02T22:54:30.764Z,8.98
2023-02-02T22:57:00.570Z,7.90
2023-02-02T22:59:30.061Z,7.65
2023-02-02T23:01:56.914Z,7.15
2023-02-02T23:04:23.942Z,16.17
2023-02-02T23:06:50.864Z,5.70
2023-02-02T23:09:22.440Z,6.28
2023-02-02T23:11:49.551Z,5.65
2023-02-02T23:14:19.427Z,3.97
2023-02-02T23:16:48.267Z,7.47
2023-02-02T23:19:15.086Z,9.23
2023-02-02T23:21:41.957Z,8.20
2023-02-02T23:24:09.010Z,12.95
2023-02-02T23:26:40.687Z,4.10
2023-02-02T23:29:07.642Z,10.18
2023-02-02T23:31:34.430Z,6.05
2023-02-02T23:34:03.166Z,4.88
2023-02-02T23:36:29.976Z,6.82
2023-02-02T23:38:56.708Z,9.00
2023-02-02T23:41:23.356Z,7.55
2023-02-02T23:43:50.786Z,9.73
2023-02-02T23:46:21.771Z,7.57
2023-02-02T23:48:48.585Z,6.72
2023-02-02T23:51:18.462Z,4.70
2023-02-02T23:53:45.390Z,10.35
2023-02-02T23:56:15.217Z,9.63
2023-02-02T23:58:42.020Z,9.60
